Terminal Aerodrome Forecast
Issued by NWS Louisville, KY

Home | Current Version | Previous Version | Text Only | Print | Product List | Glossary On
Versions: 1 2 3 4 5 6 7 8 9 10 11 12 13 14 15 16 17 18
000
FTUS43 KLMK 171700
TAFBWG
TAF
KBWG 171721Z 1718/1818 19008KT P6SM VCTS SCT025 BKN035CB
     FM180000 19006KT 4SM -TSRA BR BKN025CB
      TEMPO 1800/1803 2SM TSRA BR
     FM180300 20005KT 4SM -SHRA BR BKN021
     FM180700 22004KT 3SM BR OVC012
     FM181500 25007KT P6SM SCT025 BKN035=

USA.gov is the U.S. government's official web portal to all federal, state and local government web resources and services.